Time;durP1;ratioP1;P1;durP2;ratioP2;P2;SDS_P1;SDS_P2;PMS_P1;PMS_P2;Temp;Humidity;BMP_temperature;BMP_pressure;BME280_temperature;BME280_humidity;BME280_pressure;Samples;Min_cycle;Max_cycle;Signal;HPM_P1;HPM_P2
2021/07/29 00:00:18;;;;;;;;;;;;;;;;;;2107859;28;1914;-87
2021/07/29 00:01:18;;;;;;;;;;;;;;;;;;2107804;28;772;-87
2021/07/29 00:02:20;;;;;;;;;;;;;;;;;;2107576;28;1409;-87
2021/07/29 00:03:21;;;;;;;;;;;;;;;;;;2099404;28;1313;-88
2021/07/29 00:04:23;;;;;;;;;;;;;;;;;;2097201;28;1239;-90
2021/07/29 00:05:23;;;;;;;;;;;;;;;;;;2099489;28;1227;-88
2021/07/29 00:06:25;;;;;;;;;;;;;;;;;;2099143;28;1227;-87
2021/07/29 00:07:25;;;;;;;;;;;;;;;;;;2099572;28;1249;-88
2021/07/29 00:08:27;;;;;;;;;;;;;;;;;;2090945;28;1340;-87
2021/07/29 00:09:29;;;;;;;;;;;;;;;;;;2096109;28;2094;-87
2021/07/29 00:10:31;;;;;;;;;;;;;;;;;;2099265;28;848;-88
2021/07/29 00:11:33;;;;;;;;;;;;;;;;;;2099296;28;1192;-89
2021/07/29 00:12:33;;;;;;;;;;;;;;;;;;2099305;28;1730;-88
2021/07/29 00:13:35;;;;;;;;;;;;;;;;;;2107808;28;1194;-88
2021/07/29 00:14:36;;;;;;;;;;;;;;;;;;2100801;28;2088;-88
2021/07/29 00:15:38;;;;;;;;;;;;;;;;;;2090303;28;1475;-87
2021/07/29 00:16:43;;;;;;;;;;;;;;;;;;2098805;28;1416;-88
2021/07/29 00:19:07;;;;;;;;;;;;;;;;;;2099084;28;1180;-87
2021/07/29 00:20:08;;;;;;;;;;;;;;;;;;2099477;28;1985;-88
2021/07/29 00:21:08;;;;;;;;;;;;;;;;;;2095729;28;1268;-88
2021/07/29 00:22:10;;;;;;;;;;;;;;;;;;2099447;28;1227;-88
2021/07/29 00:23:11;;;;;;;;;;;;;;;;;;2098947;28;1030;-88
2021/07/29 00:24:13;;;;;;;;;;;;;;;;;;2102065;28;1947;-88
2021/07/29 00:25:15;;;;;;;;;;;;;;;;;;2099349;28;1387;-88
2021/07/29 00:26:17;;;;;;;;;;;;;;;;;;2091148;28;1364;-88
2021/07/29 00:27:18;;;;;;;;;;;;;;;;;;2091168;28;1303;-87
2021/07/29 00:28:20;;;;;;;;;;;;;;;;;;2091128;28;1383;-88
2021/07/29 00:29:20;;;;;;;;;;;;;;;;;;2091384;28;2059;-88
2021/07/29 00:30:23;;;;;;;;;;;;;;;;;;2098874;28;1236;-92
2021/07/29 00:31:28;;;;;;;;;;;;;;;;;;2099146;28;1193;-87
2021/07/29 00:32:30;;;;;;;;;;;;;;;;;;2099922;28;1313;-90
2021/07/29 00:33:30;;;;;;;;;;;;;;;;;;2099091;28;1308;-88
2021/07/29 00:34:32;;;;;;;;;;;;;;;;;;2099097;28;1938;-88
2021/07/29 00:35:33;;;;;;;;;;;;;;;;;;2099327;28;1281;-88
2021/07/29 00:36:35;;;;;;;;;;;;;;;;;;2099270;28;1276;-88
2021/07/29 00:37:36;;;;;;;;;;;;;;;;;;2107711;28;870;-88
2021/07/29 00:38:38;;;;;;;;;;;;;;;;;;2099010;28;1255;-88
2021/07/29 00:39:38;;;;;;;;;;;;;;;;;;2090858;28;1245;-88
2021/07/29 00:40:42;;;;;;;;;;;;;;;;;;2099261;28;1914;-88
2021/07/29 00:41:42;;;;;;;;;;;;;;;;;;2099218;28;1346;-88
2021/07/29 00:42:44;;;;;;;;;;;;;;;;;;2099233;28;743;-88
2021/07/29 00:43:45;;;;;;;;;;;;;;;;;;2099213;28;1195;-87
2021/07/29 00:44:47;;;;;;;;;;;;;;;;;;2106814;28;1969;-88
2021/07/29 00:45:48;;;;;;;;;;;;;;;;;;2107450;28;1206;-87
2021/07/29 00:46:50;;;;;;;;;;;;;;;;;;2099157;28;1285;-88
2021/07/29 00:47:50;;;;;;;;;;;;;;;;;;2099330;28;1298;-88
2021/07/29 00:48:53;;;;;;;;;;;;;;;;;;2098263;28;1928;-89
2021/07/29 00:49:54;;;;;;;;;;;;;;;;;;2099527;28;1326;-87
2021/07/29 00:50:56;;;;;;;;;;;;;;;;;;2099018;28;1472;-87
2021/07/29 00:51:57;;;;;;;;;;;;;;;;;;2098771;28;1291;-88
2021/07/29 00:52:58;;;;;;;;;;;;;;;;;;2099135;28;1369;-87
2021/07/29 00:53:59;;;;;;;;;;;;;;;;;;2098470;28;2034;-88
2021/07/29 00:55:01;;;;;;;;;;;;;;;;;;2107506;28;1289;-87
2021/07/29 00:56:03;;;;;;;;;;;;;;;;;;2107476;28;1251;-88
2021/07/29 00:57:06;;;;;;;;;;;;;;;;;;2099344;28;1273;-88
2021/07/29 00:58:07;;;;;;;;;;;;;;;;;;2099011;28;1245;-87
2021/07/29 00:59:08;;;;;;;;;;;;;;;;;;2098699;28;1869;-87
2021/07/29 01:00:09;;;;;;;;;;;;;;;;;;2107572;28;1325;-87
2021/07/29 01:01:11;;;;;;;;;;;;;;;;;;2098783;28;1906;-88
2021/07/29 01:02:13;;;;;;;;;;;;;;;;;;2099208;28;1293;-88
2021/07/29 01:03:15;;;;;;;;;;;;;;;;;;2099335;28;1183;-86
2021/07/29 01:04:16;;;;;;;;;;;;;;;;;;2099133;28;1278;-86
2021/07/29 01:05:18;;;;;;;;;;;;;;;;;;2098666;28;1209;-87
2021/07/29 01:06:19;;;;;;;;;;;;;;;;;;2107449;28;1219;-87
2021/07/29 01:07:20;;;;;;;;;;;;;;;;;;2105178;28;1348;-87
2021/07/29 01:08:21;;;;;;;;;;;;;;;;;;2098997;28;1214;-88
2021/07/29 01:09:23;;;;;;;;;;;;;;;;;;2098730;28;1880;-87
2021/07/29 01:10:23;;;;;;;;;;;;;;;;;;2099112;28;1461;-87
2021/07/29 01:11:27;;;;;;;;;;;;;;;;;;2099239;28;1367;-87
2021/07/29 01:12:27;;;;;;;;;;;;;;;;;;2098760;28;1116;-87
2021/07/29 01:13:29;;;;;;;;;;;;;;;;;;2099196;28;1225;-87
2021/07/29 01:14:29;;;;;;;;;;;;;;;;;;2098490;28;1880;-87
2021/07/29 01:15:31;;;;;;;;;;;;;;;;;;2107599;28;837;-88
2021/07/29 01:16:32;;;;;;;;;;;;;;;;;;2107208;28;1171;-87
2021/07/29 01:17:33;;;;;;;;;;;;;;;;;;2099247;28;1275;-88
2021/07/29 01:18:34;;;;;;;;;;;;;;;;;;2099072;28;1342;-88
2021/07/29 01:19:37;;;;;;;;;;;;;;;;;;2098213;28;1406;-87
2021/07/29 01:20:39;;;;;;;;;;;;;;;;;;2098851;28;1926;-87
2021/07/29 01:21:41;;;;;;;;;;;;;;;;;;2099351;28;880;-87
2021/07/29 01:22:42;;;;;;;;;;;;;;;;;;2099067;28;1260;-87
2021/07/29 01:23:44;;;;;;;;;;;;;;;;;;2090913;28;1237;-87
2021/07/29 01:24:44;;;;;;;;;;;;;;;;;;2099209;28;1950;-87
2021/07/29 01:25:46;;;;;;;;;;;;;;;;;;2099215;28;1440;-87
2021/07/29 01:26:47;;;;;;;;;;;;;;;;;;2098912;28;794;-87
2021/07/29 01:27:48;;;;;;;;;;;;;;;;;;2100635;28;1216;-87
2021/07/29 01:28:49;;;;;;;;;;;;;;;;;;2099727;28;1876;-88
2021/07/29 01:29:51;;;;;;;;;;;;;;;;;;2108681;28;821;-87
2021/07/29 01:30:51;;;;;;;;;;;;;;;;;;2100392;28;1373;-88
2021/07/29 01:31:53;;;;;;;;;;;;;;;;;;2092447;28;1342;-88
2021/07/29 01:32:53;;;;;;;;;;;;;;;;;;2092138;28;1183;-88
2021/07/29 01:33:55;;;;;;;;;;;;;;;;;;2092504;28;1936;-91
2021/07/29 01:34:58;;;;;;;;;;;;;;;;;;2108955;28;885;-87
2021/07/29 01:36:00;;;;;;;;;;;;;;;;;;2108419;28;1199;-87
2021/07/29 01:37:02;;;;;;;;;;;;;;;;;;2109117;28;1234;-87
2021/07/29 01:38:02;;;;;;;;;;;;;;;;;;2109183;28;1255;-87
2021/07/29 01:39:04;;;;;;;;;;;;;;;;;;2100071;28;2253;-87
2021/07/29 01:40:06;;;;;;;;;;;;;;;;;;2100600;28;1336;-87
2021/07/29 01:41:07;;;;;;;;;;;;;;;;;;2108817;28;1917;-86
2021/07/29 01:42:08;;;;;;;;;;;;;;;;;;2117682;28;1224;-87
2021/07/29 01:43:10;;;;;;;;;;;;;;;;;;2108729;28;1222;-87
2021/07/29 01:44:10;;;;;;;;;;;;;;;;;;2105634;28;866;-87
2021/07/29 01:45:12;;;;;;;;;;;;;;;;;;2105274;28;1378;-87
2021/07/29 01:46:13;;;;;;;;;;;;;;;;;;2108847;28;851;-87
2021/07/29 01:47:14;;;;;;;;;;;;;;;;;;2108758;28;1363;-88
2021/07/29 01:48:15;;;;;;;;;;;;;;;;;;2100220;28;1235;-88
2021/07/29 01:49:21;;;;;;;;;;;;;;;;;;2103927;28;1870;-88
2021/07/29 01:50:22;;;;;;;;;;;;;;;;;;2100711;28;1223;-89
2021/07/29 01:51:25;;;;;;;;;;;;;;;;;;2109105;28;1230;-87
2021/07/29 01:52:27;;;;;;;;;;;;;;;;;;2108912;28;857;-88
2021/07/29 01:53:29;;;;;;;;;;;;;;;;;;2117900;28;744;-87
2021/07/29 01:54:29;;;;;;;;;;;;;;;;;;2108115;28;2147;-87
2021/07/29 01:55:34;;;;;;;;;;;;;;;;;;2108866;28;1419;-87
2021/07/29 01:56:34;;;;;;;;;;;;;;;;;;2100520;28;1668;-87
2021/07/29 01:57:37;;;;;;;;;;;;;;;;;;2108417;28;1214;-87
2021/07/29 01:58:37;;;;;;;;;;;;;;;;;;2100319;28;1294;-86
2021/07/29 01:59:39;;;;;;;;;;;;;;;;;;2093531;28;2081;-87
2021/07/29 02:00:40;;;;;;;;;;;;;;;;;;2091852;28;1399;-87
2021/07/29 02:01:42;;;;;;;;;;;;;;;;;;2091928;28;1914;-87
2021/07/29 02:02:44;;;;;;;;;;;;;;;;;;2100229;28;1419;-87
2021/07/29 02:03:44;;;;;;;;;;;;;;;;;;2092588;28;1193;-87
2021/07/29 02:04:46;;;;;;;;;;;;;;;;;;2091041;28;2133;-89
2021/07/29 02:05:50;;;;;;;;;;;;;;;;;;2092443;28;1381;-86
2021/07/29 02:06:53;;;;;;;;;;;;;;;;;;2102343;28;1388;-87
2021/07/29 02:07:53;;;;;;;;;;;;;;;;;;2108630;28;1613;-87
2021/07/29 02:08:55;;;;;;;;;;;;;;;;;;2107593;28;1949;-88
2021/07/29 02:09:56;;;;;;;;;;;;;;;;;;2103799;28;813;-87
2021/07/29 02:10:57;;;;;;;;;;;;;;;;;;2100027;28;1248;-87
2021/07/29 02:11:59;;;;;;;;;;;;;;;;;;2091946;28;1303;-87
2021/07/29 02:13:00;;;;;;;;;;;;;;;;;;2092108;28;1264;-87
2021/07/29 02:14:02;;;;;;;;;;;;;;;;;;2093789;28;2153;-88
2021/07/29 02:15:03;;;;;;;;;;;;;;;;;;2100121;28;1414;-87
2021/07/29 02:16:14;;;;;;;;;;;;;;;;;;2091687;28;1325;-87
2021/07/29 02:17:18;;;;;;;;;;;;;;;;;;2101753;28;843;-86
2021/07/29 02:18:19;;;;;;;;;;;;;;;;;;2100194;28;1412;-87
2021/07/29 02:19:23;;;;;;;;;;;;;;;;;;2095681;28;1952;-87
2021/07/29 02:20:25;;;;;;;;;;;;;;;;;;2100048;28;1103;-87
2021/07/29 02:21:26;;;;;;;;;;;;;;;;;;2108355;28;1963;-87
2021/07/29 02:22:31;;;;;;;;;;;;;;;;;;2099587;28;1297;-88
2021/07/29 02:23:32;;;;;;;;;;;;;;;;;;2092075;28;1230;-87
2021/07/29 02:24:34;;;;;;;;;;;;;;;;;;2091548;28;1878;-87
2021/07/29 02:25:34;;;;;;;;;;;;;;;;;;2091834;28;1204;-87
2021/07/29 02:26:36;;;;;;;;;;;;;;;;;;2091625;28;1271;-87
2021/07/29 02:27:37;;;;;;;;;;;;;;;;;;2100212;28;874;-87
2021/07/29 02:28:39;;;;;;;;;;;;;;;;;;2100208;28;1237;-87
2021/07/29 02:29:40;;;;;;;;;;;;;;;;;;2099663;28;1866;-87
2021/07/29 02:30:41;;;;;;;;;;;;;;;;;;2108328;28;1045;-87
2021/07/29 02:31:45;;;;;;;;;;;;;;;;;;2100227;28;1533;-87
2021/07/29 02:32:47;;;;;;;;;;;;;;;;;;2091388;28;1207;-87
2021/07/29 02:33:49;;;;;;;;;;;;;;;;;;2093583;28;2057;-87
2021/07/29 02:34:50;;;;;;;;;;;;;;;;;;2099680;28;1315;-87
2021/07/29 02:35:52;;;;;;;;;;;;;;;;;;2100226;28;1297;-86
2021/07/29 02:36:53;;;;;;;;;;;;;;;;;;2099960;28;1219;-87
2021/07/29 02:37:56;;;;;;;;;;;;;;;;;;2094091;28;1302;-87
2021/07/29 02:38:56;;;;;;;;;;;;;;;;;;2099404;28;1997;-87
2021/07/29 02:39:58;;;;;;;;;;;;;;;;;;2100160;28;915;-87
2021/07/29 02:40:59;;;;;;;;;;;;;;;;;;2099944;28;1973;-89
2021/07/29 02:42:00;;;;;;;;;;;;;;;;;;2099860;28;1323;-86
2021/07/29 02:43:01;;;;;;;;;;;;;;;;;;2099995;28;1179;-89
2021/07/29 02:44:03;;;;;;;;;;;;;;;;;;2101712;28;1898;-88
2021/07/29 02:45:04;;;;;;;;;;;;;;;;;;2108447;28;1385;-87
2021/07/29 02:46:06;;;;;;;;;;;;;;;;;;2108098;28;1272;-87
2021/07/29 02:47:06;;;;;;;;;;;;;;;;;;2100093;28;1274;-87
2021/07/29 02:48:08;;;;;;;;;;;;;;;;;;2100038;28;1527;-87
2021/07/29 02:49:09;;;;;;;;;;;;;;;;;;2099214;28;1961;-87
2021/07/29 02:50:11;;;;;;;;;;;;;;;;;;2108102;28;1218;-88
2021/07/29 02:51:12;;;;;;;;;;;;;;;;;;2107816;28;1376;-87
2021/07/29 02:52:13;;;;;;;;;;;;;;;;;;2099933;28;1340;-87
2021/07/29 02:53:15;;;;;;;;;;;;;;;;;;2099823;28;1428;-87
2021/07/29 02:54:17;;;;;;;;;;;;;;;;;;2100120;28;1348;-88
2021/07/29 02:55:18;;;;;;;;;;;;;;;;;;2108173;28;1333;-87
2021/07/29 02:56:19;;;;;;;;;;;;;;;;;;2116894;28;833;-87
2021/07/29 02:57:20;;;;;;;;;;;;;;;;;;2108209;28;1370;-87
2021/07/29 02:58:22;;;;;;;;;;;;;;;;;;2099439;28;1404;-86
2021/07/29 02:59:23;;;;;;;;;;;;;;;;;;2099225;28;2058;-86
2021/07/29 03:00:24;;;;;;;;;;;;;;;;;;2108210;28;1465;-87
2021/07/29 03:01:25;;;;;;;;;;;;;;;;;;2108172;28;1906;-85
2021/07/29 03:02:27;;;;;;;;;;;;;;;;;;2099825;28;1214;-87
2021/07/29 03:03:28;;;;;;;;;;;;;;;;;;2099787;28;1545;-86
2021/07/29 03:04:29;;;;;;;;;;;;;;;;;;2107457;28;2095;-87
2021/07/29 03:05:30;;;;;;;;;;;;;;;;;;2107971;28;1629;-86
2021/07/29 03:06:32;;;;;;;;;;;;;;;;;;2099838;28;1303;-87
2021/07/29 03:07:33;;;;;;;;;;;;;;;;;;2099738;28;1329;-86
2021/07/29 03:08:36;;;;;;;;;;;;;;;;;;2099733;28;1242;-87
2021/07/29 03:09:37;;;;;;;;;;;;;;;;;;2099917;28;1302;-87
2021/07/29 03:10:38;;;;;;;;;;;;;;;;;;2108319;28;916;-87
2021/07/29 03:11:39;;;;;;;;;;;;;;;;;;2117236;28;765;-86
2021/07/29 03:12:41;;;;;;;;;;;;;;;;;;2107940;28;1337;-87
2021/07/29 03:13:42;;;;;;;;;;;;;;;;;;2108157;28;787;-87
2021/07/29 03:14:44;;;;;;;;;;;;;;;;;;2116778;28;2138;-86
2021/07/29 03:15:45;;;;;;;;;;;;;;;;;;2108100;28;1376;-87
2021/07/29 03:16:47;;;;;;;;;;;;;;;;;;2099721;28;1248;-87
2021/07/29 03:17:48;;;;;;;;;;;;;;;;;;2099797;28;1247;-87
2021/07/29 03:18:49;;;;;;;;;;;;;;;;;;2099327;28;1322;-88
2021/07/29 03:19:50;;;;;;;;;;;;;;;;;;2099427;28;1351;-87
2021/07/29 03:20:54;;;;;;;;;;;;;;;;;;2099738;28;1232;-87
2021/07/29 03:21:55;;;;;;;;;;;;;;;;;;2108251;28;2008;-87
2021/07/29 03:22:57;;;;;;;;;;;;;;;;;;2107974;28;1373;-87
2021/07/29 03:23:59;;;;;;;;;;;;;;;;;;2100034;28;1235;-87
2021/07/29 03:25:01;;;;;;;;;;;;;;;;;;2099656;28;1215;-87
2021/07/29 03:26:01;;;;;;;;;;;;;;;;;;2099793;28;1371;-88
2021/07/29 03:27:03;;;;;;;;;;;;;;;;;;2099840;28;1240;-88
2021/07/29 03:28:04;;;;;;;;;;;;;;;;;;2099567;28;1387;-88
2021/07/29 03:29:06;;;;;;;;;;;;;;;;;;2099611;28;1235;-87
2021/07/29 03:30:07;;;;;;;;;;;;;;;;;;2099664;28;1226;-88
2021/07/29 03:31:09;;;;;;;;;;;;;;;;;;2099552;28;1383;-87
2021/07/29 03:32:09;;;;;;;;;;;;;;;;;;2099582;28;1183;-87
2021/07/29 03:33:11;;;;;;;;;;;;;;;;;;2099278;28;1380;-87
2021/07/29 03:34:12;;;;;;;;;;;;;;;;;;2107865;28;2013;-87
2021/07/29 03:35:13;;;;;;;;;;;;;;;;;;2116499;28;816;-87
2021/07/29 03:36:15;;;;;;;;;;;;;;;;;;2117175;28;830;-87
2021/07/29 03:37:16;;;;;;;;;;;;;;;;;;2107902;28;1198;-87
2021/07/29 03:38:18;;;;;;;;;;;;;;;;;;2099718;28;1246;-86
2021/07/29 03:39:20;;;;;;;;;;;;;;;;;;2099454;28;1278;-87
2021/07/29 03:40:22;;;;;;;;;;;;;;;;;;2099092;28;1255;-91
2021/07/29 03:41:22;;;;;;;;;;;;;;;;;;2108227;28;1962;-88
2021/07/29 03:42:24;;;;;;;;;;;;;;;;;;2116682;28;1256;-89
2021/07/29 03:43:25;;;;;;;;;;;;;;;;;;2108038;28;1346;-88
2021/07/29 03:44:26;;;;;;;;;;;;;;;;;;2099033;28;1896;-88
2021/07/29 03:45:27;;;;;;;;;;;;;;;;;;2108248;28;877;-88
2021/07/29 03:46:28;;;;;;;;;;;;;;;;;;2107738;28;1207;-88
2021/07/29 03:47:29;;;;;;;;;;;;;;;;;;2107838;28;885;-88
2021/07/29 03:48:31;;;;;;;;;;;;;;;;;;2107969;28;1376;-88
2021/07/29 03:49:33;;;;;;;;;;;;;;;;;;2107741;28;1316;-88
2021/07/29 03:50:35;;;;;;;;;;;;;;;;;;2099110;28;1380;-88
2021/07/29 03:51:36;;;;;;;;;;;;;;;;;;2099822;28;1231;-87
2021/07/29 03:52:38;;;;;;;;;;;;;;;;;;2099284;28;1338;-88
2021/07/29 03:53:39;;;;;;;;;;;;;;;;;;2099628;28;1342;-88
2021/07/29 03:54:42;;;;;;;;;;;;;;;;;;2106840;28;1942;-88
2021/07/29 03:55:44;;;;;;;;;;;;;;;;;;2099917;28;1203;-87
2021/07/29 03:56:45;;;;;;;;;;;;;;;;;;2099388;28;1238;-87
2021/07/29 03:57:46;;;;;;;;;;;;;;;;;;2107962;28;1348;-87
2021/07/29 03:58:47;;;;;;;;;;;;;;;;;;2099329;28;1154;-88
2021/07/29 03:59:49;;;;;;;;;;;;;;;;;;2108127;28;921;-88
2021/07/29 04:00:49;;;;;;;;;;;;;;;;;;2116802;28;793;-88
2021/07/29 04:01:51;;;;;;;;;;;;;;;;;;2116509;28;1918;-88
2021/07/29 04:02:52;;;;;;;;;;;;;;;;;;2107719;28;1192;-88
2021/07/29 04:03:53;;;;;;;;;;;;;;;;;;2098886;28;1868;-88
2021/07/29 04:04:54;;;;;;;;;;;;;;;;;;2098988;28;1386;-87
2021/07/29 04:05:55;;;;;;;;;;;;;;;;;;2099569;28;786;-87
2021/07/29 04:06:56;;;;;;;;;;;;;;;;;;2108399;28;892;-87
2021/07/29 04:07:58;;;;;;;;;;;;;;;;;;2102255;28;1304;-89
2021/07/29 04:08:58;;;;;;;;;;;;;;;;;;2097404;28;1890;-87
2021/07/29 04:10:01;;;;;;;;;;;;;;;;;;2090976;28;1291;-87
2021/07/29 04:11:05;;;;;;;;;;;;;;;;;;2090699;28;1173;-87
2021/07/29 04:12:07;;;;;;;;;;;;;;;;;;2091348;28;1239;-89
2021/07/29 04:13:07;;;;;;;;;;;;;;;;;;2091335;28;1324;-89
2021/07/29 04:14:09;;;;;;;;;;;;;;;;;;2093920;28;1879;-89
2021/07/29 04:15:10;;;;;;;;;;;;;;;;;;2099109;28;1198;-89
2021/07/29 04:16:12;;;;;;;;;;;;;;;;;;2099437;28;1328;-89
2021/07/29 04:17:13;;;;;;;;;;;;;;;;;;2099269;28;856;-88
2021/07/29 04:18:14;;;;;;;;;;;;;;;;;;2099370;28;1352;-89
2021/07/29 04:19:15;;;;;;;;;;;;;;;;;;2099703;28;802;-89
2021/07/29 04:20:16;;;;;;;;;;;;;;;;;;2099108;28;1228;-89
2021/07/29 04:21:17;;;;;;;;;;;;;;;;;;2099711;28;879;-87
2021/07/29 04:22:19;;;;;;;;;;;;;;;;;;2099011;28;1913;-88
2021/07/29 04:23:19;;;;;;;;;;;;;;;;;;2091187;28;1178;-87
2021/07/29 04:24:21;;;;;;;;;;;;;;;;;;2090866;28;1183;-87
2021/07/29 04:25:23;;;;;;;;;;;;;;;;;;2099215;28;831;-89
2021/07/29 04:26:25;;;;;;;;;;;;;;;;;;2106428;28;789;-87
2021/07/29 04:27:25;;;;;;;;;;;;;;;;;;2099288;28;1238;-87
2021/07/29 04:28:27;;;;;;;;;;;;;;;;;;2090906;28;1225;-87
2021/07/29 04:29:31;;;;;;;;;;;;;;;;;;2091099;28;1908;-87
2021/07/29 04:30:33;;;;;;;;;;;;;;;;;;2099592;28;900;-87
2021/07/29 04:31:33;;;;;;;;;;;;;;;;;;2108256;28;955;-87
2021/07/29 04:32:36;;;;;;;;;;;;;;;;;;2099230;28;1663;-87
2021/07/29 04:33:36;;;;;;;;;;;;;;;;;;2091329;28;1203;-87
2021/07/29 04:34:39;;;;;;;;;;;;;;;;;;2098816;28;1879;-87
2021/07/29 04:35:40;;;;;;;;;;;;;;;;;;2090727;28;1317;-87
2021/07/29 04:36:42;;;;;;;;;;;;;;;;;;2090562;28;1234;-87
2021/07/29 04:37:42;;;;;;;;;;;;;;;;;;2090868;28;1180;-87
2021/07/29 04:38:44;;;;;;;;;;;;;;;;;;2090714;28;1340;-87
2021/07/29 04:39:45;;;;;;;;;;;;;;;;;;2106921;28;1846;-87
2021/07/29 04:40:48;;;;;;;;;;;;;;;;;;2099291;28;1320;-87
2021/07/29 04:41:48;;;;;;;;;;;;;;;;;;2099234;28;1906;-87
2021/07/29 04:42:50;;;;;;;;;;;;;;;;;;2090929;28;1389;-87
2021/07/29 04:43:52;;;;;;;;;;;;;;;;;;2090326;28;1823;-88
2021/07/29 04:44:53;;;;;;;;;;;;;;;;;;2098927;28;1204;-88
2021/07/29 04:45:54;;;;;;;;;;;;;;;;;;2099288;28;1231;-87
2021/07/29 04:46:55;;;;;;;;;;;;;;;;;;2090776;28;1324;-88
2021/07/29 04:47:56;;;;;;;;;;;;;;;;;;2103042;28;1658;-81
2021/07/29 04:48:58;;;;;;;;;;;;;;;;;;2105512;28;1529;-81
2021/07/29 04:49:59;;;;;;;;;;;;;;;;;;2098954;28;1510;-82
2021/07/29 04:51:01;;;;;;;;;;;;;;;;;;2098899;28;1357;-81
2021/07/29 04:52:04;;;;;;;;;;;;;;;;;;2099379;28;760;-81
2021/07/29 04:53:04;;;;;;;;;;;;;;;;;;2099244;28;1973;-80
2021/07/29 04:54:06;;;;;;;;;;;;;;;;;;2101750;28;2006;-76
2021/07/29 04:55:07;;;;;;;;;;;;;;;;;;2115950;28;1777;-76
2021/07/29 04:56:10;;;;;;;;;;;;;;;;;;2116026;28;767;-76
2021/07/29 04:57:10;;;;;;;;;;;;;;;;;;2107234;28;1583;-77
2021/07/29 04:58:12;;;;;;;;;;;;;;;;;;2099056;28;1607;-76
2021/07/29 04:59:13;;;;;;;;;;;;;;;;;;2107189;28;866;-80
2021/07/29 05:00:15;;;;;;;;;;;;;;;;;;2107462;28;1202;-76
2021/07/29 05:01:16;;;;;;;;;;;;;;;;;;2107451;28;787;-76
2021/07/29 05:02:18;;;;;;;;;;;;;;;;;;2117796;28;1909;-76
2021/07/29 05:03:18;;;;;;;;;;;;;;;;;;2117965;28;1085;-76
2021/07/29 05:04:20;;;;;;;;;;;;;;;;;;2118040;28;1416;-76
2021/07/29 05:05:21;;;;;;;;;;;;;;;;;;2117780;28;838;-76
2021/07/29 05:06:22;;;;;;;;;;;;;;;;;;2118247;28;937;-87
2021/07/29 05:07:23;;;;;;;;;;;;;;;;;;2109353;28;1305;-76
2021/07/29 05:08:24;;;;;;;;;;;;;;;;;;2100394;28;1673;-76
2021/07/29 05:09:26;;;;;;;;;;;;;;;;;;2105530;28;1601;-76
2021/07/29 05:10:26;;;;;;;;;;;;;;;;;;2108957;28;1494;-76
2021/07/29 05:11:29;;;;;;;;;;;;;;;;;;2109469;28;871;-76
2021/07/29 05:12:30;;;;;;;;;;;;;;;;;;2109446;28;882;-76
2021/07/29 05:13:32;;;;;;;;;;;;;;;;;;2109573;28;1332;-76
2021/07/29 05:14:32;;;;;;;;;;;;;;;;;;2115962;28;991;-76
2021/07/29 05:15:34;;;;;;;;;;;;;;;;;;2108901;28;1507;-76
2021/07/29 05:16:34;;;;;;;;;;;;;;;;;;2108893;28;772;-76
2021/07/29 05:17:36;;;;;;;;;;;;;;;;;;2118294;28;909;-76
2021/07/29 05:18:37;;;;;;;;;;;;;;;;;;2117808;28;778;-76
2021/07/29 05:19:38;;;;;;;;;;;;;;;;;;2108547;28;1347;-76
2021/07/29 05:20:39;;;;;;;;;;;;;;;;;;2108676;28;916;-76
2021/07/29 05:21:40;;;;;;;;;;;;;;;;;;2118208;28;940;-76
2021/07/29 05:22:41;;;;;;;;;;;;;;;;;;2108682;28;1963;-76
2021/07/29 05:23:43;;;;;;;;;;;;;;;;;;2101513;28;1733;-76
2021/07/29 05:24:43;;;;;;;;;;;;;;;;;;2108642;28;870;-76
2021/07/29 05:25:45;;;;;;;;;;;;;;;;;;2109453;28;932;-77
2021/07/29 05:26:47;;;;;;;;;;;;;;;;;;2109363;28;910;-77
2021/07/29 05:27:48;;;;;;;;;;;;;;;;;;2109533;28;846;-77
2021/07/29 05:28:49;;;;;;;;;;;;;;;;;;2117030;28;1703;-78
2021/07/29 05:29:50;;;;;;;;;;;;;;;;;;2117961;28;807;-77
2021/07/29 05:30:51;;;;;;;;;;;;;;;;;;2117744;28;866;-77
2021/07/29 05:31:53;;;;;;;;;;;;;;;;;;2118043;28;824;-77
2021/07/29 05:32:53;;;;;;;;;;;;;;;;;;2117742;28;836;-77
2021/07/29 05:33:55;;;;;;;;;;;;;;;;;;2108983;28;1924;-77
2021/07/29 05:34:56;;;;;;;;;;;;;;;;;;2108927;28;819;-77
2021/07/29 05:35:57;;;;;;;;;;;;;;;;;;2117653;28;822;-76
2021/07/29 05:36:58;;;;;;;;;;;;;;;;;;2117871;28;839;-77
2021/07/29 05:38:00;;;;;;;;;;;;;;;;;;2117759;28;737;-78
2021/07/29 05:39:00;;;;;;;;;;;;;;;;;;2117556;28;2004;-77
2021/07/29 05:40:02;;;;;;;;;;;;;;;;;;2117883;28;792;-77
2021/07/29 05:41:03;;;;;;;;;;;;;;;;;;2108385;28;1486;-77
2021/07/29 05:42:06;;;;;;;;;;;;;;;;;;2108961;28;1415;-77
2021/07/29 05:43:06;;;;;;;;;;;;;;;;;;2117546;28;1355;-78
2021/07/29 05:44:11;;;;;;;;;;;;;;;;;;2117849;28;1240;-79
2021/07/29 05:45:11;;;;;;;;;;;;;;;;;;2117743;28;806;-78
2021/07/29 05:46:13;;;;;;;;;;;;;;;;;;2125680;27;1638;-78
2021/07/29 05:47:14;;;;;;;;;;;;;;;;;;2125540;27;827;-78
2021/07/29 05:48:16;;;;;;;;;;;;;;;;;;2117581;28;1311;-78
2021/07/29 05:49:16;;;;;;;;;;;;;;;;;;2106045;28;1327;-78
2021/07/29 05:50:18;;;;;;;;;;;;;;;;;;2099556;28;1616;-78
2021/07/29 05:51:19;;;;;;;;;;;;;;;;;;2108108;28;1221;-79
2021/07/29 05:52:20;;;;;;;;;;;;;;;;;;2108732;28;1360;-78
2021/07/29 05:53:22;;;;;;;;;;;;;;;;;;2100454;28;1612;-78
2021/07/29 05:54:24;;;;;;;;;;;;;;;;;;2108160;28;1701;-78
2021/07/29 05:55:24;;;;;;;;;;;;;;;;;;2109254;28;854;-77
2021/07/29 05:56:26;;;;;;;;;;;;;;;;;;2100151;28;1665;-77
2021/07/29 05:57:28;;;;;;;;;;;;;;;;;;2100485;28;827;-77
2021/07/29 05:58:29;;;;;;;;;;;;;;;;;;2103016;28;1612;-76
2021/07/29 05:59:30;;;;;;;;;;;;;;;;;;2094156;28;1360;-77
2021/07/29 06:00:32;;;;;;;;;;;;;;;;;;2107949;28;1309;-78
2021/07/29 06:01:32;;;;;;;;;;;;;;;;;;2117332;28;918;-77
2021/07/29 06:02:35;;;;;;;;;;;;;;;;;;2108201;28;1985;-77
2021/07/29 06:03:36;;;;;;;;;;;;;;;;;;2109127;28;883;-77
2021/07/29 06:04:37;;;;;;;;;;;;;;;;;;2108413;28;1277;-77
2021/07/29 06:05:38;;;;;;;;;;;;;;;;;;2100063;28;1754;-77
2021/07/29 06:06:39;;;;;;;;;;;;;;;;;;2100092;28;1203;-77
2021/07/29 06:07:40;;;;;;;;;;;;;;;;;;2108567;28;836;-78
2021/07/29 06:08:43;;;;;;;;;;;;;;;;;;2108436;28;1544;-77
2021/07/29 06:09:44;;;;;;;;;;;;;;;;;;2100683;28;2009;-77
2021/07/29 06:10:45;;;;;;;;;;;;;;;;;;2091673;28;1209;-77
2021/07/29 06:11:46;;;;;;;;;;;;;;;;;;2100038;28;1442;-77
2021/07/29 06:12:49;;;;;;;;;;;;;;;;;;2111726;28;1299;-77
2021/07/29 06:13:49;;;;;;;;;;;;;;;;;;2123404;27;1687;-78
2021/07/29 06:14:52;;;;;;;;;;;;;;;;;;2108182;28;1276;-77
2021/07/29 06:15:53;;;;;;;;;;;;;;;;;;2106062;28;1257;-78
2021/07/29 06:16:54;;;;;;;;;;;;;;;;;;2117710;28;1019;-78
2021/07/29 06:17:57;;;;;;;;;;;;;;;;;;2108464;28;1557;-77
2021/07/29 06:19:14;;;;;;;;;;;;;;;;;;2099507;28;1666;-77
2021/07/29 06:20:16;;;;;;;;;;;;;;;;;;2107895;28;1431;-78
2021/07/29 06:21:17;;;;;;;;;;;;;;;;;;2099247;28;1243;-77
2021/07/29 06:22:18;;;;;;;;;;;;;;;;;;2099533;28;1249;-77
2021/07/29 06:23:19;;;;;;;;;;;;;;;;;;2107914;28;1968;-77
2021/07/29 06:24:20;;;;;;;;;;;;;;;;;;2108302;28;1327;-77
2021/07/29 06:25:21;;;;;;;;;;;;;;;;;;2117441;28;866;-78
2021/07/29 06:26:23;;;;;;;;;;;;;;;;;;2117389;28;853;-79
2021/07/29 06:27:23;;;;;;;;;;;;;;;;;;2117304;28;1236;-78
2021/07/29 06:28:31;;;;;;;;;;;;;;;;;;2117249;28;875;-78
2021/07/29 06:29:32;;;;;;;;;;;;;;;;;;2116916;28;926;-78
2021/07/29 06:30:34;;;;;;;;;;;;;;;;;;2108142;28;1199;-78
2021/07/29 06:31:34;;;;;;;;;;;;;;;;;;2107901;28;1494;-78
2021/07/29 06:32:36;;;;;;;;;;;;;;;;;;2107989;28;1667;-78
2021/07/29 06:33:36;;;;;;;;;;;;;;;;;;2108480;28;1287;-78
2021/07/29 06:34:38;;;;;;;;;;;;;;;;;;2108023;28;1160;-78
2021/07/29 06:35:39;;;;;;;;;;;;;;;;;;2117016;28;1248;-79
2021/07/29 06:36:40;;;;;;;;;;;;;;;;;;2117341;28;952;-78
2021/07/29 06:37:41;;;;;;;;;;;;;;;;;;2117650;28;823;-79
2021/07/29 06:38:42;;;;;;;;;;;;;;;;;;2117312;28;861;-78
2021/07/29 06:39:43;;;;;;;;;;;;;;;;;;2117290;28;1335;-78
2021/07/29 06:40:45;;;;;;;;;;;;;;;;;;2108029;28;1194;-78
2021/07/29 06:41:45;;;;;;;;;;;;;;;;;;2108191;28;1478;-78
2021/07/29 06:42:47;;;;;;;;;;;;;;;;;;2104313;28;1981;-78
2021/07/29 06:43:49;;;;;;;;;;;;;;;;;;2108293;28;1363;-78
2021/07/29 06:44:50;;;;;;;;;;;;;;;;;;2116679;28;1343;-78
2021/07/29 06:45:51;;;;;;;;;;;;;;;;;;2117196;28;1284;-78
2021/07/29 06:46:53;;;;;;;;;;;;;;;;;;2117209;28;910;-78
2021/07/29 06:47:53;;;;;;;;;;;;;;;;;;2114287;28;1385;-78
2021/07/29 06:48:55;;;;;;;;;;;;;;;;;;2100234;28;1698;-78
2021/07/29 06:49:56;;;;;;;;;;;;;;;;;;2099809;28;1470;-79
2021/07/29 06:51:01;;;;;;;;;;;;;;;;;;2098000;28;1502;-78
2021/07/29 06:52:02;;;;;;;;;;;;;;;;;;2108589;28;1560;-78
2021/07/29 06:53:03;;;;;;;;;;;;;;;;;;2107438;28;1210;-77
2021/07/29 06:54:04;;;;;;;;;;;;;;;;;;2107899;28;1343;-78
2021/07/29 06:55:06;;;;;;;;;;;;;;;;;;2116928;28;1268;-78
2021/07/29 06:56:07;;;;;;;;;;;;;;;;;;2119003;27;1280;-77
2021/07/29 06:57:09;;;;;;;;;;;;;;;;;;2113393;28;1532;-77
2021/07/29 06:58:10;;;;;;;;;;;;;;;;;;2099691;28;1541;-79
2021/07/29 06:59:13;;;;;;;;;;;;;;;;;;2099299;28;1872;-78
2021/07/29 07:00:14;;;;;;;;;;;;;;;;;;2107990;28;1541;-78
2021/07/29 07:01:16;;;;;;;;;;;;;;;;;;2107844;28;1589;-77
2021/07/29 07:02:16;;;;;;;;;;;;;;;;;;2089081;28;1371;-77
2021/07/29 07:03:18;;;;;;;;;;;;;;;;;;2096032;28;1977;-78
2021/07/29 07:04:20;;;;;;;;;;;;;;;;;;2115841;28;1496;-78
2021/07/29 07:05:20;;;;;;;;;;;;;;;;;;2107722;28;1504;-78
2021/07/29 07:06:22;;;;;;;;;;;;;;;;;;2107455;28;1363;-78
2021/07/29 07:07:22;;;;;;;;;;;;;;;;;;2116650;28;1276;-77
2021/07/29 07:08:24;;;;;;;;;;;;;;;;;;2117012;28;1272;-78
2021/07/29 07:09:25;;;;;;;;;;;;;;;;;;2111713;28;918;-77